createdAt,value
2022-09-25T00:00:59.590Z,38.53
2022-09-25T00:03:43.447Z,44.00
2022-09-25T00:06:16.368Z,37.97
2022-09-25T00:08:43.746Z,38.30
2022-09-25T00:11:13.516Z,33.63
2022-09-25T00:13:41.923Z,41.10
2022-09-25T00:16:14.807Z,39.60
2022-09-25T00:19:01.305Z,33.95
2022-09-25T00:21:31.324Z,39.75
2022-09-25T00:24:00.948Z,40.97
2022-09-25T00:26:29.757Z,38.83
2022-09-25T00:28:57.845Z,39.35
2022-09-25T00:31:25.152Z,37.13
2022-09-25T00:33:52.538Z,39.40
2022-09-25T00:36:20.053Z,41.10
2022-09-25T00:38:48.496Z,41.90
2022-09-25T00:41:18.204Z,40.38
2022-09-25T00:43:48.849Z,40.38
2022-09-25T00:46:42.633Z,46.80
2022-09-25T00:49:09.931Z,44.67
2022-09-25T00:51:54.613Z,44.33
2022-09-25T00:54:21.852Z,50.20
2022-09-25T00:56:51.551Z,47.95
2022-09-25T00:59:27.604Z,44.85
2022-09-25T01:01:55.601Z,51.53
2022-09-25T01:04:23.253Z,51.42
2022-09-25T01:06:50.900Z,45.30
2022-09-25T01:09:18.968Z,41.83
2022-09-25T01:11:46.239Z,43.17
2022-09-25T01:14:17.457Z,38.85
2022-09-25T01:17:01.051Z,43.55
2022-09-25T01:19:46.863Z,43.10
2022-09-25T01:22:44.430Z,44.05
2022-09-25T01:25:36.337Z,42.95
2022-09-25T01:28:37.165Z,42.53
2022-09-25T01:31:13.463Z,49.88
2022-09-25T01:33:46.721Z,44.88
2022-09-25T01:36:33.901Z,48.40
2022-09-25T01:39:11.141Z,46.60
2022-09-25T01:41:42.034Z,47.20
2022-09-25T01:44:31.845Z,45.90
2022-09-25T01:47:11.419Z,47.33
2022-09-25T01:50:00.814Z,47.75
2022-09-25T01:52:35.790Z,50.95
2022-09-25T01:55:20.143Z,49.13
2022-09-25T01:57:53.598Z,47.00
2022-09-25T02:00:23.165Z,47.63
2022-09-25T02:02:55.857Z,49.42
2022-09-25T02:05:31.031Z,50.08
2022-09-25T02:08:05.422Z,45.47
2022-09-25T02:10:55.968Z,50.28
2022-09-25T02:13:27.030Z,42.63
2022-09-25T02:15:57.459Z,49.00
2022-09-25T02:18:43.925Z,47.80
2022-09-25T02:21:37.412Z,49.28
2022-09-25T02:24:20.937Z,50.63
2022-09-25T02:26:48.744Z,50.95
2022-09-25T02:29:15.948Z,53.28
2022-09-25T02:31:53.941Z,53.95
2022-09-25T02:34:22.306Z,57.33
2022-09-25T02:36:49.398Z,52.78
2022-09-25T02:39:19.087Z,60.72
2022-09-25T02:42:18.359Z,61.38
2022-09-25T02:45:10.018Z,54.33
2022-09-25T02:50:20.643Z,57.08
2022-09-25T02:53:23.693Z,55.38
2022-09-25T02:56:05.422Z,62.55
2022-09-25T02:58:37.745Z,53.80
2022-09-25T03:01:08.275Z,50.72
2022-09-25T03:03:38.322Z,55.47
2022-09-25T03:06:07.927Z,52.42
2022-09-25T03:08:38.136Z,55.47
2022-09-25T03:11:08.114Z,55.88
2022-09-25T03:13:35.825Z,50.20
2022-09-25T03:16:08.614Z,53.35
2022-09-25T03:18:35.708Z,54.35
2022-09-25T03:21:04.226Z,52.00
2022-09-25T03:23:32.402Z,61.55
2022-09-25T03:25:59.766Z,50.78
2022-09-25T03:28:27.265Z,52.67
2022-09-25T03:31:02.416Z,52.20
2022-09-25T03:33:33.386Z,53.95
2022-09-25T03:36:02.292Z,47.93
2022-09-25T03:38:29.082Z,52.72
2022-09-25T03:40:56.135Z,47.70
2022-09-25T03:43:23.070Z,50.95
2022-09-25T03:45:49.968Z,51.17
2022-09-25T03:48:17.775Z,45.20
2022-09-25T03:50:46.213Z,45.70
2022-09-25T03:53:13.002Z,48.38
2022-09-25T03:55:40.006Z,45.95
2022-09-25T03:58:06.849Z,51.58
2022-09-25T04:00:33.831Z,49.92
2022-09-25T04:03:01.160Z,49.03
2022-09-25T04:05:28.000Z,44.38
2022-09-25T04:07:54.931Z,49.72
2022-09-25T04:10:22.079Z,43.13
2022-09-25T04:12:53.241Z,49.92
2022-09-25T04:15:24.208Z,47.22
2022-09-25T04:17:55.049Z,39.58
2022-09-25T04:20:22.544Z,49.72
2022-09-25T04:22:49.477Z,41.40
2022-09-25T04:25:19.556Z,54.00
2022-09-25T04:27:50.389Z,40.95
2022-09-25T04:30:17.449Z,45.42
2022-09-25T04:33:02.745Z,41.80
2022-09-25T04:35:29.754Z,39.55
2022-09-25T04:37:56.563Z,39.28
2022-09-25T04:40:23.400Z,40.70
2022-09-25T04:42:58.921Z,39.53
2022-09-25T04:45:26.789Z,38.22
2022-09-25T04:47:54.537Z,43.30
2022-09-25T04:50:25.591Z,43.28
2022-09-25T04:52:52.900Z,41.13
2022-09-25T04:55:24.816Z,39.92
2022-09-25T05:00:29.954Z,35.33
2022-09-25T05:02:57.245Z,43.25
2022-09-25T05:05:28.407Z,41.17
2022-09-25T05:07:57.423Z,40.42
2022-09-25T05:10:30.315Z,40.63
2022-09-25T05:13:02.607Z,43.22
2022-09-25T05:15:31.849Z,38.70
2022-09-25T05:18:15.270Z,39.53
2022-09-25T05:20:42.071Z,40.03
2022-09-25T05:23:09.528Z,41.20
2022-09-25T05:25:36.510Z,41.28
2022-09-25T05:28:03.408Z,42.35
2022-09-25T05:30:33.305Z,41.55
2022-09-25T05:33:00.272Z,39.38
2022-09-25T05:35:29.522Z,42.78
2022-09-25T05:37:56.702Z,40.05
2022-09-25T05:40:24.226Z,41.85
2022-09-25T05:42:52.209Z,35.47
2022-09-25T05:45:21.490Z,39.20
2022-09-25T05:47:48.349Z,42.40
2022-09-25T05:50:16.970Z,37.35
2022-09-25T05:52:44.000Z,39.60
2022-09-25T05:55:11.485Z,39.15
2022-09-25T05:57:39.023Z,40.30
2022-09-25T06:00:11.651Z,37.60
2022-09-25T06:02:41.453Z,35.75
2022-09-25T06:05:10.091Z,36.97
2022-09-25T06:07:37.357Z,40.08
2022-09-25T06:10:04.523Z,35.55
2022-09-25T06:12:31.983Z,39.95
2022-09-25T06:14:59.025Z,36.65
2022-09-25T06:17:25.853Z,37.88
2022-09-25T06:19:52.866Z,36.05
2022-09-25T06:22:20.041Z,35.67
2022-09-25T06:24:48.750Z,36.22
2022-09-25T06:27:15.925Z,37.10
2022-09-25T06:29:42.750Z,35.67
2022-09-25T06:32:09.615Z,34.03
2022-09-25T06:34:36.654Z,32.40
2022-09-25T06:37:03.508Z,33.08
2022-09-25T06:39:33.264Z,30.30
2022-09-25T06:42:00.342Z,30.70
2022-09-25T06:44:28.289Z,31.90
2022-09-25T06:46:55.200Z,30.90
2022-09-25T06:49:22.495Z,31.83
2022-09-25T06:51:51.114Z,31.70
2022-09-25T06:54:18.211Z,32.55
2022-09-25T06:56:49.506Z,29.85
2022-09-25T06:59:17.125Z,28.30
2022-09-25T07:01:44.022Z,25.90
2022-09-25T07:04:11.371Z,24.90
2022-09-25T07:06:38.340Z,25.77
2022-09-25T07:09:05.475Z,31.20
2022-09-25T07:11:32.572Z,28.27
2022-09-25T07:13:59.650Z,31.95
2022-09-25T07:16:28.798Z,29.90
2022-09-25T07:18:58.502Z,28.88
2022-09-25T07:21:27.806Z,30.88
2022-09-25T07:23:54.761Z,32.42
2022-09-25T07:26:25.278Z,29.55
2022-09-25T07:28:55.234Z,29.77
2022-09-25T07:31:26.136Z,30.58
2022-09-25T07:33:53.722Z,25.93
2022-09-25T07:36:21.006Z,28.02
2022-09-25T07:38:52.441Z,26.92
2022-09-25T07:41:22.266Z,29.15
2022-09-25T07:44:17.673Z,32.88
2022-09-25T07:46:44.517Z,32.72
2022-09-25T07:49:12.172Z,26.77
2022-09-25T07:51:39.306Z,28.42
2022-09-25T07:54:06.871Z,32.35
2022-09-25T07:56:38.385Z,28.17
2022-09-25T07:59:05.506Z,28.92
2022-09-25T08:01:32.703Z,32.70
2022-09-25T08:03:59.967Z,30.92
2022-09-25T08:06:26.770Z,28.50
2022-09-25T08:08:53.673Z,31.35
2022-09-25T08:11:20.683Z,31.17
2022-09-25T08:13:47.556Z,27.05
2022-09-25T08:16:17.525Z,30.20
2022-09-25T08:18:46.812Z,30.95
2022-09-25T08:21:19.246Z,33.28
2022-09-25T08:23:52.531Z,28.00
2022-09-25T08:26:21.522Z,24.63
2022-09-25T08:28:50.697Z,26.33
2022-09-25T08:31:17.960Z,27.35
2022-09-25T08:33:46.552Z,23.33
2022-09-25T08:36:14.313Z,24.58
2022-09-25T08:38:41.217Z,28.55
2022-09-25T08:41:15.179Z,25.00
2022-09-25T08:43:49.505Z,26.25
2022-09-25T08:46:59.280Z,29.08
2022-09-25T08:49:30.833Z,25.10
2022-09-25T08:52:02.931Z,29.48
2022-09-25T08:54:32.420Z,24.85
2022-09-25T08:57:08.780Z,28.95
2022-09-25T08:59:39.203Z,24.80
2022-09-25T09:02:19.667Z,31.70
2022-09-25T09:04:56.920Z,26.20
2022-09-25T09:07:29.886Z,25.30
2022-09-25T09:10:11.063Z,23.90
2022-09-25T09:12:44.749Z,26.83
2022-09-25T09:15:39.146Z,25.73
2022-09-25T09:18:18.981Z,27.52
2022-09-25T09:20:58.508Z,26.80
2022-09-25T09:23:34.393Z,22.90
2022-09-25T09:26:03.099Z,24.73
2022-09-25T09:28:56.808Z,21.75
2022-09-25T09:31:51.689Z,22.17
2022-09-25T09:35:01.298Z,19.52
2022-09-25T09:37:50.449Z,23.15
2022-09-25T09:40:47.273Z,20.17
2022-09-25T09:43:23.137Z,24.63
2022-09-25T09:46:15.391Z,23.67
2022-09-25T09:49:06.989Z,21.95
2022-09-25T09:51:54.184Z,19.85
2022-09-25T09:54:30.133Z,18.67
2022-09-25T09:56:57.858Z,20.10
2022-09-25T09:59:31.549Z,18.90
2022-09-25T10:02:03.295Z,21.08
2022-09-25T10:04:36.216Z,19.80
2022-09-25T10:07:13.715Z,21.33
2022-09-25T10:09:40.775Z,20.83
2022-09-25T10:12:15.215Z,20.13
2022-09-25T10:14:45.840Z,16.52
2022-09-25T10:17:12.905Z,13.70
2022-09-25T10:19:54.223Z,16.35
2022-09-25T10:22:26.005Z,16.55
2022-09-25T10:25:01.983Z,14.13
2022-09-25T10:27:46.363Z,18.58
2022-09-25T10:30:20.430Z,16.55
2022-09-25T10:33:01.278Z,13.38
2022-09-25T10:35:41.602Z,15.25
2022-09-25T10:38:39.304Z,16.20
2022-09-25T10:41:12.220Z,14.23
2022-09-25T10:43:55.420Z,15.27
2022-09-25T10:46:52.598Z,16.85
2022-09-25T10:49:43.775Z,15.90
2022-09-25T10:52:16.131Z,15.38
2022-09-25T10:54:45.569Z,14.07
2022-09-25T10:57:38.452Z,13.55
2022-09-25T11:00:27.051Z,14.20
2022-09-25T11:03:00.902Z,16.10
2022-09-25T11:05:31.847Z,12.90
2022-09-25T11:08:02.793Z,7.63
2022-09-25T11:10:36.290Z,9.18
2022-09-25T11:13:28.558Z,8.48
2022-09-25T11:16:01.106Z,10.35
2022-09-25T11:18:45.625Z,10.73
2022-09-25T11:21:49.226Z,11.45
2022-09-25T11:24:26.546Z,10.18
2022-09-25T11:27:18.402Z,10.98
2022-09-25T11:29:54.639Z,11.23
2022-09-25T11:32:59.732Z,11.25
2022-09-25T11:35:57.842Z,8.82
2022-09-25T11:39:04.444Z,9.57
2022-09-25T11:41:53.341Z,13.43
2022-09-25T11:44:54.406Z,12.85
2022-09-25T11:47:28.353Z,8.45
2022-09-25T11:49:58.890Z,10.25
2022-09-25T11:52:28.725Z,6.90
2022-09-25T11:55:34.634Z,8.50
2022-09-25T11:58:14.783Z,6.70
2022-09-25T12:01:18.893Z,7.60
2022-09-25T12:03:46.421Z,6.32
2022-09-25T12:06:22.134Z,6.53
2022-09-25T12:09:10.253Z,6.78
2022-09-25T12:11:55.264Z,7.57
2022-09-25T12:14:46.925Z,7.63
2022-09-25T12:17:28.894Z,5.72
2022-09-25T12:20:33.883Z,6.20
2022-09-25T12:23:19.097Z,8.57
2022-09-25T12:25:55.066Z,6.20
2022-09-25T12:28:28.070Z,6.88
2022-09-25T12:31:07.556Z,7.57
2022-09-25T12:33:44.389Z,7.55
2022-09-25T12:36:20.842Z,8.73
2022-09-25T12:39:01.600Z,9.90
2022-09-25T12:41:51.551Z,10.73
2022-09-25T12:44:43.779Z,9.10
2022-09-25T12:48:00.167Z,6.78
2022-09-25T12:50:34.040Z,8.48
2022-09-25T12:53:24.981Z,9.48
2022-09-25T12:56:19.047Z,8.73
2022-09-25T12:59:05.716Z,12.85
2022-09-25T13:02:09.634Z,9.25
2022-09-25T13:04:42.558Z,9.52
2022-09-25T13:07:25.177Z,7.75
2022-09-25T13:09:52.373Z,12.50
2022-09-25T13:12:33.442Z,8.57
2022-09-25T13:17:37.242Z,14.75
2022-09-25T13:20:28.874Z,9.50
2022-09-25T13:23:01.560Z,9.25
2022-09-25T13:25:30.161Z,9.63
2022-09-25T13:28:07.527Z,9.85
2022-09-25T13:30:35.109Z,11.48
2022-09-25T13:33:04.093Z,9.40
2022-09-25T13:35:32.988Z,8.88
2022-09-25T13:38:38.847Z,10.95
2022-09-25T13:41:12.020Z,12.32
2022-09-25T13:43:39.330Z,9.00
2022-09-25T13:46:21.480Z,11.10
2022-09-25T13:48:52.193Z,11.38
2022-09-25T13:51:21.895Z,9.27
2022-09-25T13:54:03.062Z,9.38
2022-09-25T13:56:42.022Z,8.77
2022-09-25T13:59:13.857Z,11.27
2022-09-25T14:01:41.576Z,13.50
2022-09-25T14:04:14.946Z,8.60
2022-09-25T14:06:44.792Z,9.38
2022-09-25T14:09:17.735Z,12.05
2022-09-25T14:11:55.773Z,8.65
2022-09-25T14:14:31.068Z,9.93
2022-09-25T14:16:59.783Z,9.60
2022-09-25T14:19:31.374Z,8.38
2022-09-25T14:22:00.372Z,7.47
2022-09-25T14:24:29.755Z,8.25
2022-09-25T14:27:02.169Z,8.32
2022-09-25T14:29:37.727Z,9.93
2022-09-25T14:32:50.198Z,8.23
2022-09-25T14:35:25.114Z,8.32
2022-09-25T14:37:54.885Z,9.57
2022-09-25T14:40:33.419Z,8.23
2022-09-25T14:43:23.944Z,17.50
2022-09-25T14:46:12.771Z,9.75
2022-09-25T14:49:02.365Z,8.38
2022-09-25T14:51:43.753Z,9.18
2022-09-25T14:54:16.281Z,9.02
2022-09-25T14:56:48.866Z,9.80
2022-09-25T14:59:24.648Z,10.27
2022-09-25T15:01:52.968Z,9.60
2022-09-25T15:04:34.647Z,9.15
2022-09-25T15:07:14.250Z,8.40
2022-09-25T15:09:49.543Z,10.05
2022-09-25T15:12:30.523Z,8.60
2022-09-25T15:15:12.144Z,11.30
2022-09-25T15:17:53.078Z,14.75
2022-09-25T15:20:23.100Z,12.17
2022-09-25T15:22:57.776Z,10.00
2022-09-25T15:25:32.997Z,11.25
2022-09-25T15:28:00.651Z,9.70
2022-09-25T15:30:28.417Z,11.43
2022-09-25T15:33:00.487Z,15.57
2022-09-25T15:35:29.471Z,10.85
2022-09-25T15:38:12.607Z,9.98
2022-09-25T15:40:41.569Z,11.63
2022-09-25T15:43:16.273Z,9.38
2022-09-25T15:46:33.390Z,12.00
2022-09-25T15:49:00.622Z,12.85
2022-09-25T15:51:30.572Z,10.98
2022-09-25T15:54:04.096Z,11.70
2022-09-25T15:56:44.386Z,10.80
2022-09-25T15:59:23.281Z,11.00
2022-09-25T16:02:09.947Z,9.25
2022-09-25T16:04:40.598Z,11.57
2022-09-25T16:07:40.855Z,13.77
2022-09-25T16:10:10.575Z,16.83
2022-09-25T16:12:41.943Z,10.13
2022-09-25T16:15:43.536Z,14.13
2022-09-25T16:18:13.440Z,12.25
2022-09-25T16:20:41.902Z,11.32
2022-09-25T16:23:31.362Z,11.52
2022-09-25T16:25:58.677Z,10.95
2022-09-25T16:28:29.242Z,11.13
2022-09-25T16:31:01.679Z,16.02
2022-09-25T16:33:34.802Z,11.40
2022-09-25T16:36:16.931Z,12.13
2022-09-25T16:39:10.116Z,12.85
2022-09-25T16:41:40.351Z,10.88
2022-09-25T16:44:32.648Z,19.63
2022-09-25T16:46:59.468Z,12.05
2022-09-25T16:49:26.677Z,13.02
2022-09-25T16:51:55.453Z,11.05
2022-09-25T16:54:30.822Z,12.60
2022-09-25T16:56:59.417Z,16.77
2022-09-25T16:59:28.339Z,19.73
2022-09-25T17:02:05.020Z,12.40
2022-09-25T17:04:35.840Z,13.88
2022-09-25T17:07:02.797Z,11.52
2022-09-25T17:09:31.440Z,13.57
2022-09-25T17:12:07.493Z,15.07
2022-09-25T17:14:35.857Z,12.63
2022-09-25T17:17:03.259Z,12.02
2022-09-25T17:19:30.032Z,16.48
2022-09-25T17:21:57.865Z,14.80
2022-09-25T17:24:27.182Z,14.80
2022-09-25T17:26:54.764Z,15.13
2022-09-25T17:29:22.763Z,21.02
2022-09-25T17:31:49.684Z,15.80
2022-09-25T17:34:18.850Z,18.00
2022-09-25T17:36:46.132Z,16.92
2022-09-25T17:39:13.299Z,18.38
2022-09-25T17:41:40.576Z,17.83
2022-09-25T17:44:12.285Z,15.82
2022-09-25T17:46:39.103Z,18.42
2022-09-25T17:49:07.097Z,16.48
2022-09-25T17:51:34.714Z,22.02
2022-09-25T17:54:02.571Z,20.20
2022-09-25T17:56:29.669Z,19.83
2022-09-25T17:58:57.907Z,24.30
2022-09-25T18:01:27.787Z,21.63
2022-09-25T18:03:59.836Z,22.75
2022-09-25T18:06:29.051Z,18.10
2022-09-25T18:08:56.705Z,20.08
2022-09-25T18:11:25.487Z,20.05
2022-09-25T18:14:01.203Z,16.70
2022-09-25T18:16:31.148Z,18.20
2022-09-25T18:19:17.412Z,18.02
2022-09-25T18:22:02.880Z,19.60
2022-09-25T18:24:30.319Z,19.30
2022-09-25T18:26:58.049Z,20.52
2022-09-25T18:29:25.049Z,22.02
2022-09-25T18:31:52.784Z,24.25
2022-09-25T18:34:21.796Z,20.63
2022-09-25T18:36:49.996Z,21.00
2022-09-25T18:39:20.491Z,19.98
2022-09-25T18:41:48.302Z,20.10
2022-09-25T18:44:17.802Z,24.13
2022-09-25T18:46:45.056Z,18.10
2022-09-25T18:49:11.888Z,27.98
2022-09-25T18:51:38.742Z,21.52
2022-09-25T18:54:06.164Z,21.20
2022-09-25T18:56:34.659Z,22.33
2022-09-25T18:59:05.496Z,23.98
2022-09-25T19:01:34.711Z,22.35
2022-09-25T19:04:02.038Z,20.77
2022-09-25T19:06:28.850Z,26.85
2022-09-25T19:08:57.848Z,29.58
2022-09-25T19:11:26.383Z,24.15
2022-09-25T19:13:53.720Z,21.20
2022-09-25T19:16:21.552Z,25.65
2022-09-25T19:18:50.189Z,23.92
2022-09-25T19:21:22.329Z,25.20
2022-09-25T19:23:49.917Z,22.27
2022-09-25T19:26:20.955Z,24.02
2022-09-25T19:28:48.896Z,25.83
2022-09-25T19:31:22.417Z,25.60
2022-09-25T19:33:50.789Z,28.13
2022-09-25T19:36:24.221Z,29.08
2022-09-25T19:38:51.297Z,33.13
2022-09-25T19:41:19.723Z,26.15
2022-09-25T19:43:46.715Z,27.45
2022-09-25T19:46:17.420Z,29.70
2022-09-25T19:48:46.086Z,30.70
2022-09-25T19:51:14.125Z,34.72
2022-09-25T19:53:42.087Z,30.77
2022-09-25T19:56:10.301Z,34.80
2022-09-25T19:58:40.907Z,36.60
2022-09-25T20:01:13.451Z,40.22
2022-09-25T20:03:41.994Z,38.10
2022-09-25T20:06:09.936Z,39.38
2022-09-25T20:08:37.771Z,37.85
2022-09-25T20:11:19.546Z,34.50
2022-09-25T20:13:47.865Z,31.05
2022-09-25T20:16:18.937Z,37.60
2022-09-25T20:18:50.559Z,41.00
2022-09-25T20:23:58.903Z,37.47
2022-09-25T20:26:26.846Z,42.05
2022-09-25T20:29:01.817Z,36.00
2022-09-25T20:31:32.437Z,38.10
2022-09-25T20:33:59.451Z,42.00
2022-09-25T20:36:27.227Z,38.28
2022-09-25T20:38:56.121Z,41.85
2022-09-25T20:41:25.015Z,46.58
2022-09-25T20:43:54.973Z,41.55
2022-09-25T20:46:23.940Z,40.67
2022-09-25T20:48:52.781Z,36.53
2022-09-25T20:51:26.980Z,39.25
2022-09-25T20:53:57.159Z,38.05
2022-09-25T20:56:24.485Z,41.92
2022-09-25T20:58:53.457Z,38.60
2022-09-25T21:01:23.275Z,38.33
2022-09-25T21:03:52.010Z,36.53
2022-09-25T21:06:24.682Z,38.35
2022-09-25T21:08:53.613Z,34.05
2022-09-25T21:11:21.613Z,36.22
2022-09-25T21:13:53.613Z,38.75
2022-09-25T21:16:22.263Z,41.85
2022-09-25T21:19:00.777Z,39.85
2022-09-25T21:21:28.906Z,43.95
2022-09-25T21:23:57.549Z,40.83
2022-09-25T21:26:28.090Z,39.63
2022-09-25T21:28:58.141Z,39.50
2022-09-25T21:31:34.759Z,37.70
2022-09-25T21:34:02.249Z,44.15
2022-09-25T21:36:30.100Z,43.35
2022-09-25T21:38:56.986Z,39.63
2022-09-25T21:41:26.028Z,41.78
2022-09-25T21:44:02.607Z,40.78
2022-09-25T21:46:30.153Z,36.97
2022-09-25T21:48:59.833Z,41.03
2022-09-25T21:51:32.454Z,38.60
2022-09-25T21:54:01.198Z,40.47
2022-09-25T21:56:30.115Z,43.38
2022-09-25T21:58:58.077Z,38.75
2022-09-25T22:01:32.237Z,38.80
2022-09-25T22:03:59.975Z,40.72
2022-09-25T22:06:33.616Z,38.72
2022-09-25T22:09:05.234Z,40.80
2022-09-25T22:11:32.839Z,42.58
2022-09-25T22:14:00.235Z,34.08
2022-09-25T22:16:33.365Z,35.95
2022-09-25T22:19:10.827Z,34.30
2022-09-25T22:21:38.161Z,34.70
2022-09-25T22:24:06.096Z,35.03
2022-09-25T22:26:39.063Z,36.38
2022-09-25T22:29:07.026Z,34.53
2022-09-25T22:31:35.300Z,40.53
2022-09-25T22:34:05.854Z,34.25
2022-09-25T22:36:35.966Z,35.88
2022-09-25T22:39:04.546Z,33.65
2022-09-25T22:41:31.865Z,36.78
2022-09-25T22:44:00.935Z,35.60
2022-09-25T22:46:28.676Z,36.60
2022-09-25T22:48:56.226Z,41.47
2022-09-25T22:51:26.216Z,36.58
2022-09-25T22:53:54.507Z,37.78
2022-09-25T22:56:26.133Z,39.28
2022-09-25T22:58:59.595Z,40.00
2022-09-25T23:01:32.043Z,38.47
2022-09-25T23:04:03.544Z,37.55
2022-09-25T23:06:33.267Z,36.58
2022-09-25T23:09:03.395Z,41.55
2022-09-25T23:11:31.133Z,37.17
2022-09-25T23:14:06.358Z,40.00
2022-09-25T23:16:34.211Z,37.58
2022-09-25T23:19:01.600Z,39.63
2022-09-25T23:21:29.918Z,38.85
2022-09-25T23:24:17.589Z,34.28
2022-09-25T23:26:45.873Z,35.58
2022-09-25T23:29:15.682Z,45.30
2022-09-25T23:31:42.888Z,33.10
2022-09-25T23:34:10.595Z,36.67
2022-09-25T23:36:38.206Z,33.33
2022-09-25T23:39:06.439Z,32.47
2022-09-25T23:41:35.996Z,30.95
2022-09-25T23:44:05.409Z,32.20
2022-09-25T23:46:35.130Z,30.42
2022-09-25T23:49:02.613Z,29.83
2022-09-25T23:51:29.812Z,29.77
2022-09-25T23:53:58.116Z,29.75
2022-09-25T23:56:27.487Z,30.48
2022-09-25T23:58:56.612Z,33.20
